createdAt,value
2018-02-17T00:00:41.527Z,1.45
2018-02-17T00:03:09.103Z,1.51
2018-02-17T00:05:36.750Z,1.51
2018-02-17T00:08:04.323Z,1.53
2018-02-17T00:10:31.964Z,1.54
2018-02-17T00:12:59.530Z,1.54
2018-02-17T00:15:27.164Z,1.55
2018-02-17T00:17:54.752Z,1.54
2018-02-17T00:20:22.327Z,1.53
2018-02-17T00:22:49.995Z,1.54
2018-02-17T00:25:17.571Z,1.53
2018-02-17T00:27:45.191Z,1.53
2018-02-17T00:30:12.760Z,1.51
2018-02-17T00:32:40.438Z,1.49
2018-02-17T00:35:08.002Z,1.44
2018-02-17T00:37:35.590Z,1.40
2018-02-17T00:40:03.224Z,1.36
2018-02-17T00:42:30.786Z,1.27
2018-02-17T00:44:58.456Z,1.26
2018-02-17T00:47:26.079Z,1.25
2018-02-17T00:49:53.677Z,1.14
2018-02-17T00:52:21.244Z,1.10
2018-02-17T00:54:48.936Z,1.01
2018-02-17T00:57:16.514Z,0.92
2018-02-17T00:59:44.088Z,0.86
2018-02-17T01:02:11.673Z,0.84
2018-02-17T01:04:39.306Z,0.79
2018-02-17T01:07:06.990Z,0.76
2018-02-17T01:09:34.567Z,0.71
2018-02-17T01:12:02.246Z,0.70
2018-02-17T01:14:29.825Z,0.74
2018-02-17T01:16:57.444Z,0.72
2018-02-17T01:19:25.033Z,0.71
2018-02-17T01:21:52.585Z,0.74
2018-02-17T01:24:20.228Z,0.80
2018-02-17T01:26:47.863Z,0.87
2018-02-17T01:29:15.503Z,0.93
2018-02-17T01:31:43.075Z,0.92
2018-02-17T01:34:10.642Z,0.91
2018-02-17T01:36:38.221Z,0.83
2018-02-17T01:39:05.791Z,0.78
2018-02-17T01:41:33.366Z,0.70
2018-02-17T01:44:00.921Z,0.66
2018-02-17T01:46:28.546Z,0.62
2018-02-17T01:48:56.171Z,0.55
2018-02-17T01:51:23.754Z,0.53
2018-02-17T01:53:51.377Z,0.49
2018-02-17T01:56:18.951Z,0.47
2018-02-17T01:58:46.634Z,0.41
2018-02-17T02:01:14.205Z,0.38
2018-02-17T02:03:41.827Z,0.35
2018-02-17T02:06:09.398Z,0.30
2018-02-17T02:08:36.963Z,0.31
2018-02-17T02:11:04.607Z,0.25
2018-02-17T02:13:32.240Z,0.20
2018-02-17T02:15:59.818Z,0.14
2018-02-17T02:18:27.395Z,0.11
2018-02-17T02:20:54.996Z,0.10
2018-02-17T02:23:22.562Z,0.06
2018-02-17T02:25:50.192Z,-0.01
2018-02-17T02:28:17.776Z,0.09
2018-02-17T02:30:45.408Z,0.13
2018-02-17T02:33:12.988Z,0.13
2018-02-17T02:35:40.621Z,0.17
2018-02-17T02:38:08.245Z,0.13
2018-02-17T02:40:35.820Z,0.12
2018-02-17T02:43:03.383Z,0.11
2018-02-17T02:45:30.970Z,0.16
2018-02-17T02:47:58.609Z,0.15
2018-02-17T02:50:26.199Z,0.14
2018-02-17T02:52:53.766Z,0.12
2018-02-17T02:55:21.400Z,0.12
2018-02-17T02:57:48.964Z,0.13
2018-02-17T03:00:16.538Z,0.09
2018-02-17T03:02:44.192Z,0.00
2018-02-17T03:05:11.754Z,-0.01
2018-02-17T03:07:39.400Z,-0.05
2018-02-17T03:10:06.968Z,-0.06
2018-02-17T03:12:34.661Z,-0.08
2018-02-17T03:15:02.336Z,-0.08
2018-02-17T03:17:30.015Z,-0.10
2018-02-17T03:19:57.594Z,-0.14
2018-02-17T03:22:25.167Z,-0.17
2018-02-17T03:24:52.751Z,-0.21
2018-02-17T03:27:20.362Z,-0.24
2018-02-17T03:29:48.070Z,-0.22
2018-02-17T03:32:15.702Z,-0.17
2018-02-17T03:34:43.337Z,-0.17
2018-02-17T03:37:10.917Z,-0.18
2018-02-17T03:39:38.505Z,-0.19
2018-02-17T03:42:06.094Z,-0.21
2018-02-17T03:44:33.671Z,-0.23
2018-02-17T03:47:01.312Z,-0.22
2018-02-17T03:49:28.891Z,-0.23
2018-02-17T03:51:56.460Z,-0.25
2018-02-17T03:54:24.047Z,-0.30
2018-02-17T03:56:51.679Z,-0.33
2018-02-17T03:59:19.271Z,-0.33
2018-02-17T04:01:46.835Z,-0.32
2018-02-17T04:04:14.458Z,-0.29
2018-02-17T04:06:42.034Z,-0.30
2018-02-17T04:09:09.624Z,-0.23
2018-02-17T04:11:37.202Z,-0.20
2018-02-17T04:14:04.768Z,-0.19
2018-02-17T04:16:32.350Z,-0.13
2018-02-17T04:18:59.937Z,-0.04
2018-02-17T04:21:27.551Z,0.10
2018-02-17T04:23:55.099Z,0.22
2018-02-17T04:26:22.666Z,0.33
2018-02-17T04:28:50.306Z,0.48
2018-02-17T04:31:17.935Z,0.54
2018-02-17T04:33:45.576Z,0.60
2018-02-17T04:36:13.207Z,0.63
2018-02-17T04:38:40.877Z,0.65
2018-02-17T04:44:10.555Z,0.83
2018-02-17T04:46:43.830Z,0.89
2018-02-17T04:52:31.375Z,1.02
2018-02-17T04:58:18.886Z,1.18
2018-02-17T05:00:51.895Z,1.22
2018-02-17T05:06:32.330Z,1.43
2018-02-17T05:09:01.411Z,1.54
2018-02-17T05:11:29.035Z,1.64
2018-02-17T05:14:02.294Z,1.71
2018-02-17T05:16:35.537Z,1.77
2018-02-17T05:19:03.979Z,1.84
2018-02-17T05:21:48.383Z,1.94
2018-02-17T05:27:27.267Z,2.05
2018-02-17T05:29:54.884Z,2.07
2018-02-17T05:32:27.386Z,2.15
2018-02-17T05:35:01.614Z,2.18
2018-02-17T05:37:29.298Z,2.19
2018-02-17T05:43:04.962Z,2.16
2018-02-17T05:45:32.559Z,2.23
2018-02-17T05:48:02.069Z,2.32
2018-02-17T05:50:30.150Z,2.45
2018-02-17T05:52:57.722Z,2.60
2018-02-17T05:55:25.298Z,2.69
2018-02-17T05:57:52.866Z,2.80
2018-02-17T06:00:20.531Z,2.91
2018-02-17T06:02:48.094Z,2.88
2018-02-17T06:05:15.707Z,2.82
2018-02-17T06:07:43.395Z,2.76
2018-02-17T06:10:11.007Z,2.66
2018-02-17T06:12:38.733Z,2.64
2018-02-17T06:15:06.306Z,2.81
2018-02-17T06:17:33.870Z,2.91
2018-02-17T06:20:01.450Z,3.10
2018-02-17T06:22:29.252Z,3.27
2018-02-17T06:24:56.865Z,3.43
2018-02-17T06:27:24.427Z,3.43
2018-02-17T06:29:52.048Z,3.46
2018-02-17T06:32:19.609Z,3.55
2018-02-17T06:34:47.207Z,3.53
2018-02-17T06:37:14.782Z,3.44
2018-02-17T06:39:42.415Z,3.49
2018-02-17T06:42:09.995Z,3.57
2018-02-17T06:44:37.562Z,3.72
2018-02-17T06:47:05.185Z,3.80
2018-02-17T06:49:32.758Z,3.93
2018-02-17T06:52:00.378Z,4.05
2018-02-17T06:54:28.012Z,4.17
2018-02-17T06:56:55.636Z,4.24
2018-02-17T06:59:23.303Z,4.28
2018-02-17T07:01:50.947Z,4.37
2018-02-17T07:04:18.593Z,4.47
2018-02-17T07:06:46.227Z,4.59
2018-02-17T07:09:13.795Z,4.65
2018-02-17T07:11:41.432Z,4.82
2018-02-17T07:14:08.999Z,4.84
2018-02-17T07:16:36.582Z,4.96
2018-02-17T07:19:04.271Z,5.06
2018-02-17T07:21:31.986Z,5.17
2018-02-17T07:23:59.560Z,5.32
2018-02-17T07:26:27.126Z,5.44
2018-02-17T07:28:54.803Z,5.48
2018-02-17T07:31:22.379Z,5.69
2018-02-17T07:33:49.972Z,5.85
2018-02-17T07:36:17.542Z,6.14
2018-02-17T07:38:45.230Z,6.44
2018-02-17T07:41:12.806Z,6.54
2018-02-17T07:43:40.383Z,6.86
2018-02-17T07:46:08.023Z,7.00
2018-02-17T07:48:35.571Z,7.19
2018-02-17T07:51:03.147Z,7.45
2018-02-17T07:53:30.775Z,7.38
2018-02-17T07:55:58.403Z,7.45
2018-02-17T07:58:25.978Z,7.48
2018-02-17T08:00:53.616Z,7.69
2018-02-17T08:03:21.194Z,7.76
2018-02-17T08:05:48.769Z,7.86
2018-02-17T08:08:16.413Z,7.85
2018-02-17T08:10:43.979Z,8.15
2018-02-17T08:13:11.673Z,8.24
2018-02-17T08:15:39.238Z,8.30
2018-02-17T08:18:06.802Z,8.44
2018-02-17T08:20:34.393Z,8.69
2018-02-17T08:23:01.967Z,8.63
2018-02-17T08:25:29.542Z,8.73
2018-02-17T08:27:57.180Z,8.91
2018-02-17T08:30:24.838Z,8.95
2018-02-17T08:32:52.475Z,9.07
2018-02-17T08:35:20.105Z,9.14
2018-02-17T08:37:47.679Z,8.83
2018-02-17T08:40:15.311Z,8.76
2018-02-17T08:42:42.886Z,8.72
2018-02-17T08:45:10.448Z,9.11
2018-02-17T08:47:38.079Z,9.34
2018-02-17T08:50:05.642Z,9.33
2018-02-17T08:52:33.320Z,9.18
2018-02-17T08:55:00.896Z,8.96
2018-02-17T08:57:28.536Z,9.06
2018-02-17T08:59:56.259Z,9.20
2018-02-17T09:02:23.830Z,9.51
2018-02-17T09:04:51.443Z,9.74
2018-02-17T09:07:19.019Z,9.79
2018-02-17T09:09:46.647Z,9.79
2018-02-17T09:12:14.258Z,9.75
2018-02-17T09:14:41.837Z,9.94
2018-02-17T09:17:09.436Z,10.12
2018-02-17T09:19:37.004Z,10.24
2018-02-17T09:22:04.646Z,10.49
2018-02-17T09:24:32.227Z,10.62
2018-02-17T09:26:59.833Z,10.88
2018-02-17T09:29:27.479Z,11.10
2018-02-17T09:31:55.050Z,11.27
2018-02-17T09:34:22.684Z,11.38
2018-02-17T09:36:50.319Z,11.96
2018-02-17T09:39:17.883Z,12.00
2018-02-17T09:44:44.425Z,11.68
2018-02-17T09:47:12.067Z,12.24
2018-02-17T09:49:39.652Z,12.95
2018-02-17T09:52:07.288Z,13.17
2018-02-17T09:54:34.862Z,13.05
2018-02-17T09:57:02.439Z,13.05
2018-02-17T09:59:30.076Z,13.08
2018-02-17T10:01:57.664Z,13.25
2018-02-17T10:04:25.247Z,13.28
2018-02-17T10:06:52.865Z,13.13
2018-02-17T10:09:20.481Z,13.26
2018-02-17T10:11:48.054Z,13.47
2018-02-17T10:14:15.691Z,13.44
2018-02-17T10:16:43.327Z,13.93
2018-02-17T10:19:10.902Z,13.95
2018-02-17T10:21:38.484Z,14.16
2018-02-17T10:24:06.037Z,14.05
2018-02-17T10:26:33.672Z,13.93
2018-02-17T10:29:01.308Z,14.35
2018-02-17T10:31:28.887Z,14.69
2018-02-17T10:33:56.480Z,14.91
2018-02-17T10:36:24.107Z,14.85
2018-02-17T10:38:51.696Z,14.89
2018-02-17T10:41:19.314Z,14.94
2018-02-17T10:43:46.927Z,15.06
2018-02-17T10:46:14.511Z,15.28
2018-02-17T10:48:42.162Z,15.24
2018-02-17T10:51:09.755Z,15.16
2018-02-17T10:53:37.326Z,14.90
2018-02-17T10:56:04.911Z,15.15
2018-02-17T10:58:32.470Z,15.62
2018-02-17T11:01:00.159Z,15.63
2018-02-17T11:03:27.732Z,15.89
2018-02-17T11:05:55.317Z,16.37
2018-02-17T11:08:22.960Z,16.78
2018-02-17T11:10:50.525Z,17.85
2018-02-17T11:13:18.136Z,17.45
2018-02-17T11:18:18.475Z,16.48
2018-02-17T11:20:46.018Z,17.11
2018-02-17T11:23:13.564Z,16.85
2018-02-17T11:25:41.127Z,17.59
2018-02-17T11:28:08.674Z,17.04
2018-02-17T11:30:36.226Z,16.58
2018-02-17T11:33:03.775Z,16.45
2018-02-17T11:35:31.394Z,17.08
2018-02-17T11:37:58.943Z,17.67
2018-02-17T11:40:26.486Z,17.47
2018-02-17T11:42:54.222Z,16.40
2018-02-17T11:45:21.932Z,16.89
2018-02-17T11:47:49.655Z,17.14
2018-02-17T11:50:17.375Z,17.68
2018-02-17T11:52:45.191Z,18.47
2018-02-17T11:55:12.930Z,18.72
2018-02-17T11:57:40.677Z,18.12
2018-02-17T12:00:08.397Z,17.33
2018-02-17T12:02:36.117Z,17.31
2018-02-17T12:05:03.847Z,16.93
2018-02-17T12:07:31.548Z,17.87
2018-02-17T12:09:59.328Z,17.57
2018-02-17T12:12:27.028Z,17.72
2018-02-17T12:14:54.738Z,16.76
2018-02-17T12:17:22.483Z,16.56
2018-02-17T12:19:50.206Z,15.90
2018-02-17T12:22:17.951Z,15.17
2018-02-17T12:24:45.696Z,14.42
2018-02-17T12:27:13.449Z,13.66
2018-02-17T12:29:41.170Z,13.06
2018-02-17T12:32:08.892Z,12.73
2018-02-17T12:34:36.623Z,12.48
2018-02-17T12:37:04.345Z,12.18
2018-02-17T12:39:32.072Z,11.88
2018-02-17T12:41:59.796Z,11.69
2018-02-17T12:44:27.403Z,11.56
2018-02-17T12:46:55.034Z,11.33
2018-02-17T12:49:22.606Z,11.29
2018-02-17T12:51:50.195Z,11.18
2018-02-17T12:54:17.827Z,11.14
2018-02-17T12:56:45.412Z,11.05
2018-02-17T12:59:12.987Z,11.04
2018-02-17T13:01:40.670Z,10.89
2018-02-17T13:04:08.243Z,10.71
2018-02-17T13:06:35.880Z,10.74
2018-02-17T13:09:03.538Z,10.70
2018-02-17T13:11:31.107Z,10.55
2018-02-17T13:13:58.733Z,10.49
2018-02-17T13:16:26.334Z,10.36
2018-02-17T13:18:53.963Z,10.45
2018-02-17T13:21:21.589Z,10.47
2018-02-17T13:23:49.158Z,10.38
2018-02-17T13:26:16.789Z,10.51
2018-02-17T13:28:44.371Z,10.48
2018-02-17T13:31:11.951Z,10.36
2018-02-17T13:33:39.519Z,10.42
2018-02-17T13:36:07.179Z,10.47
2018-02-17T13:38:34.751Z,10.32
2018-02-17T13:41:02.318Z,10.36
2018-02-17T13:43:29.921Z,10.34
2018-02-17T13:45:57.559Z,10.32
2018-02-17T13:48:25.133Z,10.27
2018-02-17T13:50:52.760Z,10.24
2018-02-17T13:53:20.383Z,10.20
2018-02-17T13:55:48.021Z,10.18
2018-02-17T13:58:15.646Z,10.20
2018-02-17T14:00:43.227Z,10.06
2018-02-17T14:03:10.794Z,10.06
2018-02-17T14:05:38.418Z,10.10
2018-02-17T14:08:05.999Z,10.02
2018-02-17T14:10:33.572Z,9.94
2018-02-17T14:13:01.152Z,9.89
2018-02-17T14:15:28.708Z,9.86
2018-02-17T14:17:56.381Z,9.75
2018-02-17T14:20:23.954Z,9.79
2018-02-17T14:22:51.522Z,9.75
2018-02-17T14:25:19.199Z,9.81
2018-02-17T14:27:46.758Z,9.70
2018-02-17T14:30:14.389Z,9.70
2018-02-17T14:32:41.974Z,9.70
2018-02-17T14:35:09.540Z,9.65
2018-02-17T14:37:37.268Z,9.61
2018-02-17T14:40:04.870Z,9.56
2018-02-17T14:42:32.499Z,9.50
2018-02-17T14:45:00.076Z,9.50
2018-02-17T14:47:27.711Z,9.48
2018-02-17T14:49:55.308Z,9.45
2018-02-17T14:52:22.947Z,9.45
2018-02-17T14:54:50.567Z,9.41
2018-02-17T14:57:18.142Z,9.33
2018-02-17T14:59:45.766Z,9.32
2018-02-17T15:02:13.416Z,9.26
2018-02-17T15:04:40.986Z,9.23
2018-02-17T15:07:08.563Z,9.16
2018-02-17T15:09:36.132Z,9.10
2018-02-17T15:12:03.734Z,9.00
2018-02-17T15:14:31.306Z,8.93
2018-02-17T15:16:58.987Z,8.93
2018-02-17T15:19:26.558Z,8.83
2018-02-17T15:21:54.110Z,8.71
2018-02-17T15:24:21.699Z,8.64
2018-02-17T15:26:49.270Z,8.55
2018-02-17T15:29:17.055Z,8.48
2018-02-17T15:31:44.633Z,8.40
2018-02-17T15:34:12.275Z,8.33
2018-02-17T15:36:39.843Z,8.22
2018-02-17T15:39:07.490Z,8.16
2018-02-17T15:41:35.073Z,8.02
2018-02-17T15:44:02.655Z,7.98
2018-02-17T15:46:30.236Z,7.96
2018-02-17T15:48:57.888Z,7.91
2018-02-17T15:51:25.525Z,7.84
2018-02-17T15:53:53.090Z,7.76
2018-02-17T15:56:20.810Z,7.69
2018-02-17T15:58:48.775Z,7.57
2018-02-17T16:01:16.527Z,7.44
2018-02-17T16:03:44.173Z,7.31
2018-02-17T16:06:12.123Z,7.17
2018-02-17T16:08:39.815Z,7.04
2018-02-17T16:11:07.455Z,6.94
2018-02-17T16:13:35.092Z,6.86
2018-02-17T16:16:02.679Z,6.75
2018-02-17T16:18:30.252Z,6.67
2018-02-17T16:20:57.890Z,6.66
2018-02-17T16:23:25.523Z,6.50
2018-02-17T16:25:53.154Z,6.41
2018-02-17T16:28:20.788Z,6.32
2018-02-17T16:30:48.431Z,6.24
2018-02-17T16:33:16.079Z,6.19
2018-02-17T16:35:43.655Z,6.14
2018-02-17T16:38:11.310Z,6.09
2018-02-17T16:40:38.948Z,6.05
2018-02-17T16:43:06.571Z,6.06
2018-02-17T16:45:34.234Z,6.15
2018-02-17T16:48:01.869Z,6.17
2018-02-17T16:50:29.498Z,6.16
2018-02-17T16:52:57.145Z,6.18
2018-02-17T16:55:24.903Z,6.28
2018-02-17T16:57:53.893Z,6.34
2018-02-17T17:00:21.475Z,6.28
2018-02-17T17:02:49.057Z,6.28
2018-02-17T17:05:16.677Z,6.19
2018-02-17T17:07:44.312Z,6.18
2018-02-17T17:10:11.996Z,6.10
2018-02-17T17:12:39.677Z,5.92
2018-02-17T17:15:07.239Z,5.91
2018-02-17T17:17:34.797Z,5.80
2018-02-17T17:20:02.374Z,5.76
2018-02-17T17:22:29.995Z,5.74
2018-02-17T17:24:57.922Z,5.70
2018-02-17T17:27:25.503Z,5.67
2018-02-17T17:29:53.100Z,5.55
2018-02-17T17:32:20.740Z,5.53
2018-02-17T17:34:48.380Z,5.45
2018-02-17T17:37:16.010Z,5.38
2018-02-17T17:39:43.653Z,5.28
2018-02-17T17:42:11.288Z,5.17
2018-02-17T17:44:38.962Z,5.05
2018-02-17T17:47:06.515Z,4.99
2018-02-17T17:49:34.098Z,4.95
2018-02-17T17:52:01.680Z,4.86
2018-02-17T17:54:29.332Z,4.81
2018-02-17T17:56:56.938Z,4.83
2018-02-17T17:59:24.522Z,4.76
2018-02-17T18:01:52.178Z,4.64
2018-02-17T18:04:19.836Z,4.59
2018-02-17T18:06:47.491Z,4.52
2018-02-17T18:09:15.128Z,4.44
2018-02-17T18:11:42.848Z,4.43
2018-02-17T18:14:10.423Z,4.44
2018-02-17T18:16:38.058Z,4.39
2018-02-17T18:19:05.648Z,4.37
2018-02-17T18:21:33.231Z,4.32
2018-02-17T18:24:00.894Z,4.32
2018-02-17T18:26:28.474Z,4.27
2018-02-17T18:28:56.163Z,4.24
2018-02-17T18:31:23.793Z,4.21
2018-02-17T18:33:51.376Z,4.19
2018-02-17T18:36:19.011Z,4.14
2018-02-17T18:38:46.597Z,4.04
2018-02-17T18:41:14.235Z,3.98
2018-02-17T18:43:41.816Z,3.89
2018-02-17T18:46:09.556Z,3.76
2018-02-17T18:48:37.197Z,3.68
2018-02-17T18:51:04.772Z,3.60
2018-02-17T18:53:32.357Z,3.55
2018-02-17T18:55:59.997Z,3.51
2018-02-17T18:58:27.570Z,3.43
2018-02-17T19:00:55.193Z,3.34
2018-02-17T19:03:22.859Z,3.26
2018-02-17T19:05:50.435Z,3.20
2018-02-17T19:08:18.064Z,3.18
2018-02-17T19:10:45.689Z,3.15
2018-02-17T19:13:13.303Z,3.12
2018-02-17T19:15:40.897Z,3.14
2018-02-17T19:18:08.530Z,3.10
2018-02-17T19:20:36.227Z,3.07
2018-02-17T19:23:03.803Z,2.99
2018-02-17T19:25:31.380Z,3.00
2018-02-17T19:27:58.982Z,2.90
2018-02-17T19:30:26.559Z,2.89
2018-02-17T19:32:54.195Z,2.87
2018-02-17T19:35:21.766Z,2.84
2018-02-17T19:37:49.410Z,2.75
2018-02-17T19:40:17.051Z,2.77
2018-02-17T19:42:44.635Z,2.79
2018-02-17T19:45:12.292Z,2.74
2018-02-17T19:47:39.923Z,2.76
2018-02-17T19:50:07.496Z,2.75
2018-02-17T19:52:35.067Z,2.75
2018-02-17T19:55:02.813Z,2.76
2018-02-17T19:57:30.428Z,2.75
2018-02-17T19:59:57.982Z,2.72
2018-02-17T20:02:25.588Z,2.68
2018-02-17T20:04:53.177Z,2.69
2018-02-17T20:07:20.751Z,2.69
2018-02-17T20:09:48.337Z,2.68
2018-02-17T20:12:15.967Z,2.66
2018-02-17T20:14:43.556Z,2.75
2018-02-17T20:17:11.129Z,2.74
2018-02-17T20:19:38.722Z,2.70
2018-02-17T20:22:06.295Z,2.70
2018-02-17T20:24:33.877Z,2.72
2018-02-17T20:27:01.464Z,2.71
2018-02-17T20:29:29.110Z,2.80
2018-02-17T20:31:56.690Z,2.80
2018-02-17T20:34:24.305Z,2.84
2018-02-17T20:36:51.909Z,2.87
2018-02-17T20:39:19.480Z,2.93
2018-02-17T20:41:47.057Z,2.93
2018-02-17T20:44:14.682Z,2.96
2018-02-17T20:46:42.319Z,2.94
2018-02-17T20:49:09.903Z,2.89
2018-02-17T20:51:37.481Z,2.92
2018-02-17T20:54:05.055Z,3.02
2018-02-17T20:56:32.680Z,3.08
2018-02-17T20:59:00.257Z,3.10
2018-02-17T21:01:27.955Z,3.10
2018-02-17T21:03:55.574Z,3.10
2018-02-17T21:06:23.144Z,3.14
2018-02-17T21:08:50.719Z,3.19
2018-02-17T21:11:18.310Z,3.22
2018-02-17T21:13:46.718Z,3.23
2018-02-17T21:16:14.298Z,3.29
2018-02-17T21:18:41.912Z,3.40
2018-02-17T21:21:09.594Z,3.43
2018-02-17T21:23:37.228Z,3.46
2018-02-17T21:26:04.830Z,3.48
2018-02-17T21:28:32.412Z,3.48
2018-02-17T21:31:00.004Z,3.50
2018-02-17T21:33:27.586Z,3.52
2018-02-17T21:35:55.204Z,3.51
2018-02-17T21:38:22.882Z,3.50
2018-02-17T21:40:50.446Z,3.46
2018-02-17T21:43:18.049Z,3.42
2018-02-17T21:45:45.645Z,3.38
2018-02-17T21:48:13.275Z,3.40
2018-02-17T21:50:40.911Z,3.37
2018-02-17T21:53:08.535Z,3.34
2018-02-17T21:55:36.235Z,3.29
2018-02-17T21:58:03.859Z,3.31
2018-02-17T22:00:31.494Z,3.33
2018-02-17T22:02:59.065Z,3.34
2018-02-17T22:05:26.647Z,3.35
2018-02-17T22:07:54.238Z,3.39
2018-02-17T22:10:21.803Z,3.38
2018-02-17T22:12:49.431Z,3.42
2018-02-17T22:15:17.008Z,3.49
2018-02-17T22:17:44.639Z,3.50
2018-02-17T22:20:12.236Z,3.49
2018-02-17T22:22:39.870Z,3.52
2018-02-17T22:25:07.459Z,3.55
2018-02-17T22:27:35.025Z,3.58
2018-02-17T22:30:02.680Z,3.60
2018-02-17T22:32:30.304Z,3.62
2018-02-17T22:34:57.927Z,3.61
2018-02-17T22:37:25.563Z,3.58
2018-02-17T22:39:53.195Z,3.61
2018-02-17T22:42:20.778Z,3.62
2018-02-17T22:44:48.332Z,3.63
2018-02-17T22:47:16.015Z,3.64
2018-02-17T22:49:43.646Z,3.62
2018-02-17T22:52:11.214Z,3.67
2018-02-17T22:54:38.795Z,3.77
2018-02-17T22:57:06.373Z,3.83
2018-02-17T22:59:33.955Z,3.90
2018-02-17T23:02:01.524Z,3.93
2018-02-17T23:04:29.216Z,3.91
2018-02-17T23:06:56.847Z,3.93
2018-02-17T23:09:24.475Z,3.95
2018-02-17T23:11:52.057Z,3.99
2018-02-17T23:14:19.691Z,4.03
2018-02-17T23:16:47.266Z,4.00
2018-02-17T23:19:14.854Z,4.07
2018-02-17T23:21:42.542Z,4.11
2018-02-17T23:24:10.192Z,4.07
2018-02-17T23:26:37.758Z,4.09
2018-02-17T23:29:05.396Z,4.03
2018-02-17T23:31:32.964Z,4.02
2018-02-17T23:34:00.609Z,4.02
2018-02-17T23:36:28.187Z,4.03
2018-02-17T23:38:55.810Z,3.99
2018-02-17T23:41:23.420Z,3.95
2018-02-17T23:43:51.048Z,3.89
2018-02-17T23:46:18.628Z,3.86
2018-02-17T23:48:46.244Z,3.86
2018-02-17T23:51:13.824Z,3.87
2018-02-17T23:53:41.387Z,3.82
2018-02-17T23:56:09.021Z,3.79
2018-02-17T23:58:36.605Z,3.74
